createdAt,value
2018-02-01T00:01:19.804Z,3.13
2018-02-01T00:03:47.581Z,2.53
2018-02-01T00:06:15.444Z,2.90
2018-02-01T00:08:43.203Z,2.97
2018-02-01T00:11:11.032Z,3.10
2018-02-01T00:13:38.860Z,2.70
2018-02-01T00:16:06.713Z,2.63
2018-02-01T00:18:34.567Z,2.63
2018-02-01T00:21:02.336Z,2.10
2018-02-01T00:23:33.216Z,2.27
2018-02-01T00:26:01.009Z,2.50
2018-02-01T00:28:28.842Z,2.33
2018-02-01T00:30:56.604Z,2.23
2018-02-01T00:33:24.412Z,2.10
2018-02-01T00:36:09.019Z,1.70
2018-02-01T00:38:36.922Z,1.53
2018-02-01T00:41:04.658Z,1.73
2018-02-01T00:43:32.560Z,3.10
2018-02-01T00:46:00.327Z,1.50
2018-02-01T00:48:28.124Z,1.57
2018-02-01T00:50:55.979Z,1.50
2018-02-01T00:53:23.798Z,1.40
2018-02-01T00:55:51.582Z,1.90
2018-02-01T00:58:21.700Z,1.33
2018-02-01T01:00:49.523Z,1.40
2018-02-01T01:03:17.320Z,1.40
2018-02-01T01:17:36.096Z,1.87
2018-02-01T01:20:03.972Z,1.80
2018-02-01T01:22:31.733Z,1.57
2018-02-01T01:24:59.584Z,1.60
2018-02-01T01:27:27.380Z,1.73
2018-02-01T01:29:55.239Z,1.87
2018-02-01T01:32:23.023Z,1.87
2018-02-01T01:34:50.898Z,1.70
2018-02-01T01:37:18.699Z,1.47
2018-02-01T01:39:46.480Z,1.67
2018-02-01T01:42:14.284Z,1.70
2018-02-01T01:44:42.035Z,1.50
2018-02-01T01:47:09.916Z,1.70
2018-02-01T01:49:37.721Z,1.70
2018-02-01T01:52:05.612Z,1.67
2018-02-01T01:54:33.416Z,1.60
2018-02-01T01:57:01.281Z,1.50
2018-02-01T01:59:29.049Z,1.90
2018-02-01T02:01:56.862Z,1.73
2018-02-01T02:04:24.665Z,2.00
2018-02-01T02:06:52.510Z,1.60
2018-02-01T02:09:20.312Z,1.60
2018-02-01T02:11:48.216Z,1.60
2018-02-01T02:14:16.113Z,1.70
2018-02-01T02:16:43.968Z,1.30
2018-02-01T02:19:11.843Z,1.73
2018-02-01T02:21:39.665Z,1.83
2018-02-01T02:24:07.479Z,1.47
2018-02-01T02:26:35.225Z,1.80
2018-02-01T02:29:03.129Z,1.80
2018-02-01T02:31:31.004Z,1.87
2018-02-01T02:33:58.858Z,1.70
2018-02-01T02:36:26.718Z,1.50
2018-02-01T02:38:54.548Z,1.70
2018-02-01T02:41:22.368Z,1.30
2018-02-01T02:43:50.201Z,1.50
2018-02-01T02:46:18.011Z,1.70
2018-02-01T02:48:45.836Z,1.60
2018-02-01T02:51:13.640Z,1.70
2018-02-01T02:53:41.497Z,1.50
2018-02-01T02:56:09.291Z,1.70
2018-02-01T02:58:37.024Z,1.43
2018-02-01T03:01:04.857Z,1.60
2018-02-01T03:03:32.649Z,1.40
2018-02-01T03:06:00.481Z,1.77
2018-02-01T03:08:28.343Z,1.67
2018-02-01T03:10:56.165Z,1.50
2018-02-01T03:13:23.979Z,1.70
2018-02-01T03:15:51.863Z,1.43
2018-02-01T03:18:19.664Z,1.43
2018-02-01T03:20:47.489Z,1.60
2018-02-01T03:23:15.252Z,1.60
2018-02-01T03:25:43.155Z,1.80
2018-02-01T03:28:10.957Z,2.30
2018-02-01T03:30:38.779Z,1.83
2018-02-01T03:33:06.618Z,1.50
2018-02-01T03:35:34.493Z,1.63
2018-02-01T03:38:02.312Z,2.17
2018-02-01T03:40:30.099Z,2.23
2018-02-01T03:42:58.044Z,2.20
2018-02-01T03:45:25.896Z,2.70
2018-02-01T03:47:53.724Z,2.40
2018-02-01T03:50:21.534Z,2.40
2018-02-01T03:52:49.374Z,2.77
2018-02-01T03:55:17.157Z,2.70
2018-02-01T03:57:44.939Z,3.00
2018-02-01T04:00:12.736Z,2.53
2018-02-01T04:02:40.556Z,2.60
2018-02-01T04:05:08.355Z,2.67
2018-02-01T04:07:36.168Z,2.37
2018-02-01T04:10:04.034Z,3.10
2018-02-01T04:12:31.854Z,2.90
2018-02-01T04:14:59.620Z,3.33
2018-02-01T04:17:27.416Z,3.20
2018-02-01T04:19:55.208Z,2.87
2018-02-01T04:22:22.981Z,3.40
2018-02-01T04:24:50.805Z,3.50
2018-02-01T04:27:18.566Z,3.30
2018-02-01T04:29:46.446Z,4.30
2018-02-01T04:32:14.266Z,3.60
2018-02-01T04:34:42.130Z,4.10
2018-02-01T04:37:09.902Z,3.80
2018-02-01T04:39:37.714Z,4.20
2018-02-01T04:42:06.560Z,3.47
2018-02-01T04:44:34.396Z,3.80
2018-02-01T04:47:02.167Z,3.50
2018-02-01T04:49:29.977Z,4.10
2018-02-01T04:51:57.821Z,4.30
2018-02-01T04:54:25.694Z,4.07
2018-02-01T04:56:53.575Z,3.90
2018-02-01T04:59:21.488Z,4.17
2018-02-01T05:01:49.307Z,4.20
2018-02-01T05:04:17.133Z,4.10
2018-02-01T05:06:44.991Z,4.07
2018-02-01T05:09:12.799Z,4.10
2018-02-01T05:11:40.691Z,3.93
2018-02-01T05:14:08.588Z,4.43
2018-02-01T05:16:36.470Z,3.60
2018-02-01T05:19:04.350Z,4.10
2018-02-01T05:21:32.189Z,4.90
2018-02-01T05:24:00.065Z,4.83
2018-02-01T05:26:28.022Z,4.87
2018-02-01T05:28:55.897Z,4.63
2018-02-01T05:31:23.750Z,4.80
2018-02-01T05:33:51.649Z,4.37
2018-02-01T05:36:19.468Z,4.53
2018-02-01T05:38:47.243Z,4.17
2018-02-01T05:41:15.172Z,4.73
2018-02-01T05:43:42.956Z,4.33
2018-02-01T05:46:10.787Z,4.40
2018-02-01T05:48:38.609Z,4.40
2018-02-01T05:51:06.433Z,4.83
2018-02-01T05:53:34.292Z,4.57
2018-02-01T05:56:02.086Z,4.63
2018-02-01T05:58:29.950Z,5.03
2018-02-01T06:00:57.739Z,4.80
2018-02-01T06:03:25.640Z,5.43
2018-02-01T06:05:53.434Z,4.73
2018-02-01T06:08:21.300Z,5.03
2018-02-01T06:10:49.108Z,5.20
2018-02-01T06:13:16.969Z,4.87
2018-02-01T06:15:44.715Z,4.70
2018-02-01T06:18:13.139Z,4.73
2018-02-01T06:20:40.983Z,4.70
2018-02-01T06:23:08.758Z,5.70
2018-02-01T06:25:36.605Z,4.77
2018-02-01T06:28:04.390Z,4.70
2018-02-01T06:30:32.330Z,4.77
2018-02-01T06:33:00.208Z,4.70
2018-02-01T06:35:28.111Z,5.17
2018-02-01T06:37:56.003Z,5.73
2018-02-01T06:40:23.855Z,5.00
2018-02-01T06:42:51.737Z,4.67
2018-02-01T06:45:19.637Z,5.30
2018-02-01T06:47:47.499Z,5.40
2018-02-01T06:50:15.413Z,5.47
2018-02-01T06:52:43.252Z,5.67
2018-02-01T06:55:11.162Z,5.57
2018-02-01T06:57:39.026Z,7.50
2018-02-01T07:00:06.921Z,6.87
2018-02-01T07:02:34.752Z,6.57
2018-02-01T07:05:02.622Z,6.30
2018-02-01T07:07:30.493Z,6.50
2018-02-01T07:09:58.348Z,6.00
2018-02-01T07:12:26.272Z,6.10
2018-02-01T07:14:54.089Z,6.23
2018-02-01T07:17:21.943Z,6.70
2018-02-01T07:19:49.805Z,7.40
2018-02-01T07:22:17.722Z,7.30
2018-02-01T07:24:45.571Z,7.00
2018-02-01T07:27:13.447Z,6.87
2018-02-01T07:29:41.281Z,7.80
2018-02-01T07:32:09.201Z,7.10
2018-02-01T07:34:37.068Z,6.80
2018-02-01T07:37:04.991Z,7.47
2018-02-01T07:39:32.892Z,7.30
2018-02-01T07:42:00.795Z,6.83
2018-02-01T07:44:28.612Z,6.70
2018-02-01T07:47:01.053Z,7.83
2018-02-01T07:49:30.312Z,7.10
2018-02-01T07:51:58.202Z,6.20
2018-02-01T07:54:26.098Z,7.37
2018-02-01T07:56:53.933Z,7.03
2018-02-01T07:59:21.823Z,6.73
2018-02-01T08:01:49.663Z,7.00
2018-02-01T08:04:17.534Z,7.70
2018-02-01T08:06:45.394Z,7.10
2018-02-01T08:09:13.462Z,8.20
2018-02-01T08:11:41.365Z,6.73
2018-02-01T08:14:09.273Z,8.30
2018-02-01T08:16:37.335Z,7.43
2018-02-01T08:19:05.233Z,7.47
2018-02-01T08:21:33.405Z,8.77
2018-02-01T08:24:01.645Z,7.80
2018-02-01T08:26:29.832Z,7.53
2018-02-01T08:28:57.749Z,7.40
2018-02-01T08:31:25.669Z,8.10
2018-02-01T08:33:53.683Z,8.20
2018-02-01T08:36:21.666Z,7.93
2018-02-01T08:38:49.607Z,7.50
2018-02-01T08:41:17.782Z,8.03
2018-02-01T08:43:45.859Z,7.90
2018-02-01T08:46:13.959Z,8.40
2018-02-01T08:48:41.841Z,8.20
2018-02-01T08:51:09.894Z,8.27
2018-02-01T08:53:37.767Z,7.67
2018-02-01T08:56:05.916Z,8.43
2018-02-01T08:58:33.771Z,8.00
2018-02-01T09:01:01.689Z,9.10
2018-02-01T09:03:29.528Z,8.70
2018-02-01T09:05:57.464Z,8.90
2018-02-01T09:08:25.325Z,8.93
2018-02-01T09:10:53.367Z,8.80
2018-02-01T09:13:21.240Z,8.80
2018-02-01T09:15:49.311Z,8.20
2018-02-01T09:18:17.344Z,8.70
2018-02-01T09:20:45.445Z,8.20
2018-02-01T09:23:13.536Z,8.97
2018-02-01T09:25:41.680Z,7.80
2018-02-01T09:28:09.614Z,8.63
2018-02-01T09:30:37.539Z,9.20
2018-02-01T09:33:05.436Z,8.40
2018-02-01T09:35:33.357Z,9.30
2018-02-01T09:38:01.260Z,9.10
2018-02-01T09:40:29.100Z,8.33
2018-02-01T09:42:57.012Z,8.57
2018-02-01T09:45:24.880Z,8.00
2018-02-01T09:47:52.733Z,7.90
2018-02-01T09:50:20.631Z,8.83
2018-02-01T09:52:48.507Z,8.60
2018-02-01T09:55:16.660Z,8.30
2018-02-01T09:57:44.711Z,8.07
2018-02-01T10:00:12.946Z,8.40
2018-02-01T10:02:41.077Z,8.83
2018-02-01T10:05:08.956Z,8.40
2018-02-01T10:07:36.863Z,8.70
2018-02-01T10:10:04.781Z,8.83
2018-02-01T10:12:32.732Z,8.83
2018-02-01T10:15:00.850Z,8.80
2018-02-01T10:17:28.724Z,9.10
2018-02-01T10:19:56.642Z,7.70
2018-02-01T10:22:24.608Z,8.70
2018-02-01T10:24:52.526Z,8.57
2018-02-01T10:27:20.364Z,9.23
2018-02-01T10:29:48.193Z,8.60
2018-02-01T10:32:15.971Z,8.40
2018-02-01T10:34:43.877Z,9.00
2018-02-01T10:37:11.903Z,8.70
2018-02-01T10:39:39.822Z,8.30
2018-02-01T10:42:07.634Z,7.90
2018-02-01T10:44:35.605Z,9.57
2018-02-01T10:47:03.535Z,7.67
2018-02-01T10:49:31.380Z,8.27
2018-02-01T10:51:59.297Z,9.50
2018-02-01T10:54:27.124Z,8.93
2018-02-01T10:56:54.997Z,8.57
2018-02-01T10:59:22.761Z,8.60
2018-02-01T11:01:50.601Z,8.10
2018-02-01T11:04:18.372Z,7.37
2018-02-01T11:06:46.245Z,8.23
2018-02-01T11:09:14.077Z,7.67
2018-02-01T11:11:41.973Z,7.60
2018-02-01T11:14:10.437Z,7.63
2018-02-01T11:16:38.264Z,7.10
2018-02-01T11:19:06.118Z,7.27
2018-02-01T11:21:33.934Z,7.07
2018-02-01T11:24:01.848Z,6.80
2018-02-01T11:26:29.732Z,7.07
2018-02-01T11:28:57.580Z,6.13
2018-02-01T11:31:25.494Z,6.27
2018-02-01T11:33:53.339Z,5.97
2018-02-01T11:36:21.302Z,5.77
2018-02-01T11:38:49.102Z,5.60
2018-02-01T11:41:16.970Z,5.63
2018-02-01T11:43:44.812Z,5.60
2018-02-01T11:46:12.676Z,6.07
2018-02-01T11:48:40.517Z,6.10
2018-02-01T11:51:08.431Z,5.90
2018-02-01T11:53:36.279Z,5.60
2018-02-01T11:56:04.136Z,5.27
2018-02-01T11:58:31.992Z,6.03
2018-02-01T12:00:59.879Z,5.10
2018-02-01T12:03:27.748Z,4.90
2018-02-01T12:05:55.694Z,4.73
2018-02-01T12:08:23.611Z,5.67
2018-02-01T12:10:51.455Z,5.13
2018-02-01T12:13:19.305Z,4.10
2018-02-01T12:15:47.136Z,4.53
2018-02-01T12:18:14.942Z,4.20
2018-02-01T12:20:42.806Z,4.50
2018-02-01T12:23:10.952Z,4.03
2018-02-01T12:25:38.917Z,4.20
2018-02-01T12:28:06.768Z,4.90
2018-02-01T12:30:34.610Z,4.00
2018-02-01T12:33:02.490Z,4.40
2018-02-01T12:35:30.280Z,4.40
2018-02-01T12:37:58.120Z,3.27
2018-02-01T12:40:25.897Z,4.20
2018-02-01T12:42:53.743Z,3.73
2018-02-01T12:45:21.669Z,3.70
2018-02-01T12:47:49.604Z,4.17
2018-02-01T12:50:17.427Z,3.80
2018-02-01T12:52:45.225Z,3.10
2018-02-01T12:55:13.089Z,3.90
2018-02-01T12:57:40.965Z,3.83
2018-02-01T13:00:08.816Z,3.90
2018-02-01T13:02:36.774Z,3.70
2018-02-01T13:05:04.604Z,3.43
2018-02-01T13:07:32.487Z,3.87
2018-02-01T13:10:00.328Z,3.40
2018-02-01T13:12:28.184Z,3.37
2018-02-01T13:14:55.996Z,3.90
2018-02-01T13:17:23.907Z,3.30
2018-02-01T13:19:51.720Z,3.30
2018-02-01T13:22:19.624Z,3.63
2018-02-01T13:24:47.380Z,3.43
2018-02-01T13:27:15.217Z,3.13
2018-02-01T13:29:43.517Z,3.00
2018-02-01T13:32:11.365Z,3.37
2018-02-01T13:34:39.202Z,3.90
2018-02-01T13:37:07.101Z,2.70
2018-02-01T13:39:34.872Z,3.43
2018-02-01T13:42:02.738Z,3.57
2018-02-01T13:44:30.572Z,3.40
2018-02-01T13:46:58.550Z,3.23
2018-02-01T13:49:26.508Z,3.30
2018-02-01T13:51:54.388Z,3.20
2018-02-01T13:54:22.211Z,3.27
2018-02-01T13:56:50.072Z,2.83
2018-02-01T13:59:17.916Z,2.90
2018-02-01T14:01:45.810Z,2.90
2018-02-01T14:04:13.568Z,2.70
2018-02-01T14:06:42.389Z,3.20
2018-02-01T14:09:10.254Z,3.40
2018-02-01T14:11:38.236Z,3.10
2018-02-01T14:14:06.097Z,3.33
2018-02-01T14:16:33.937Z,3.90
2018-02-01T14:19:01.846Z,3.80
2018-02-01T14:21:29.656Z,3.00
2018-02-01T14:23:57.537Z,3.00
2018-02-01T14:26:25.298Z,3.20
2018-02-01T14:28:53.196Z,3.07
2018-02-01T14:31:21.000Z,2.93
2018-02-01T14:33:48.874Z,3.33
2018-02-01T14:36:16.779Z,3.40
2018-02-01T14:38:44.668Z,3.27
2018-02-01T14:41:12.522Z,3.30
2018-02-01T14:43:40.713Z,2.57
2018-02-01T14:46:08.560Z,3.00
2018-02-01T14:48:36.416Z,2.90
2018-02-01T14:51:04.245Z,2.83
2018-02-01T14:53:32.073Z,2.80
2018-02-01T14:55:59.950Z,3.30
2018-02-01T14:58:27.814Z,3.03
2018-02-01T15:00:55.700Z,2.83
2018-02-01T15:03:23.552Z,3.23
2018-02-01T15:05:51.378Z,3.00
2018-02-01T15:08:19.217Z,2.93
2018-02-01T15:10:47.160Z,3.10
2018-02-01T15:13:14.975Z,2.90
2018-02-01T15:15:42.782Z,2.77
2018-02-01T15:18:10.621Z,3.20
2018-02-01T15:20:38.418Z,3.43
2018-02-01T15:23:06.223Z,3.00
2018-02-01T15:25:33.968Z,3.93
2018-02-01T15:28:01.832Z,3.13
2018-02-01T15:30:29.657Z,3.10
2018-02-01T15:32:57.503Z,3.20
2018-02-01T15:35:25.383Z,2.87
2018-02-01T15:37:53.214Z,3.00
2018-02-01T15:40:21.100Z,3.53
2018-02-01T15:42:49.344Z,3.23
2018-02-01T15:45:17.125Z,3.20
2018-02-01T15:47:44.993Z,3.30
2018-02-01T15:50:12.870Z,2.77
2018-02-01T15:52:40.703Z,3.40
2018-02-01T15:55:08.459Z,2.67
2018-02-01T15:57:36.292Z,3.07
2018-02-01T16:00:04.261Z,2.80
2018-02-01T16:02:32.115Z,2.80
2018-02-01T16:04:59.928Z,2.57
2018-02-01T16:07:27.727Z,3.40
2018-02-01T16:09:55.599Z,2.87
2018-02-01T16:12:23.393Z,3.60
2018-02-01T16:14:51.259Z,3.70
2018-02-01T16:17:19.062Z,3.57
2018-02-01T16:19:46.935Z,3.40
2018-02-01T16:22:14.717Z,2.90
2018-02-01T16:24:42.597Z,3.70
2018-02-01T16:27:11.479Z,3.80
2018-02-01T16:29:39.320Z,2.77
2018-02-01T16:32:07.100Z,3.33
2018-02-01T16:34:34.977Z,2.60
2018-02-01T16:37:02.742Z,2.40
2018-02-01T16:39:30.572Z,2.80
2018-02-01T16:41:58.312Z,2.70
2018-02-01T16:44:26.834Z,2.63
2018-02-01T16:46:54.743Z,3.07
2018-02-01T16:49:22.598Z,3.03
2018-02-01T16:51:50.406Z,3.10
2018-02-01T16:54:18.229Z,3.03
2018-02-01T16:56:46.012Z,3.83
2018-02-01T16:59:13.842Z,3.50
2018-02-01T17:01:41.671Z,4.03
2018-02-01T17:04:09.491Z,4.20
2018-02-01T17:06:37.288Z,4.20
2018-02-01T17:09:05.220Z,4.10
2018-02-01T17:11:33.353Z,4.63
2018-02-01T17:14:01.142Z,4.90
2018-02-01T17:16:28.965Z,4.77
2018-02-01T17:18:56.797Z,5.50
2018-02-01T17:21:24.544Z,5.07
2018-02-01T17:23:52.396Z,5.70
2018-02-01T17:26:20.204Z,5.83
2018-02-01T17:28:48.113Z,5.57
2018-02-01T17:31:15.972Z,5.47
2018-02-01T17:33:43.805Z,5.40
2018-02-01T17:36:11.709Z,5.60
2018-02-01T17:38:39.565Z,5.10
2018-02-01T17:41:07.404Z,5.83
2018-02-01T17:43:35.211Z,5.20
2018-02-01T17:46:03.049Z,5.63
2018-02-01T17:48:30.881Z,5.47
2018-02-01T17:50:58.763Z,5.97
2018-02-01T17:53:26.557Z,6.23
2018-02-01T17:55:54.446Z,5.83
2018-02-01T17:58:22.244Z,6.20
2018-02-01T18:00:50.100Z,6.37
2018-02-01T18:03:17.903Z,6.37
2018-02-01T18:05:45.805Z,6.50
2018-02-01T18:08:13.648Z,6.87
2018-02-01T18:10:41.579Z,6.23
2018-02-01T18:13:09.399Z,7.70
2018-02-01T18:15:37.291Z,7.43
2018-02-01T18:18:05.103Z,7.80
2018-02-01T18:20:32.967Z,7.60
2018-02-01T18:23:00.758Z,8.10
2018-02-01T18:25:28.637Z,8.40
2018-02-01T18:27:56.447Z,7.33
2018-02-01T18:30:24.326Z,8.33
2018-02-01T18:32:52.109Z,7.93
2018-02-01T18:35:20.016Z,7.70
2018-02-01T18:37:47.891Z,7.83
2018-02-01T18:40:15.784Z,7.70
2018-02-01T18:42:43.619Z,7.20
2018-02-01T18:45:11.461Z,8.27
2018-02-01T18:47:39.293Z,8.03
2018-02-01T18:50:07.210Z,7.20
2018-02-01T18:52:35.034Z,7.43
2018-02-01T18:55:02.915Z,7.27
2018-02-01T18:57:30.719Z,7.07
2018-02-01T18:59:58.566Z,6.20
2018-02-01T19:02:26.375Z,6.20
2018-02-01T19:04:54.263Z,6.50
2018-02-01T19:07:22.040Z,6.60
2018-02-01T19:09:49.838Z,6.33
2018-02-01T19:12:17.643Z,7.07
2018-02-01T19:14:45.480Z,6.37
2018-02-01T19:17:13.318Z,5.37
2018-02-01T19:19:41.185Z,6.30
2018-02-01T19:22:08.968Z,6.20
2018-02-01T19:24:36.848Z,6.00
2018-02-01T19:27:04.665Z,5.93
2018-02-01T19:29:32.458Z,6.63
2018-02-01T19:32:00.315Z,5.80
2018-02-01T19:34:28.123Z,6.37
2018-02-01T19:36:56.039Z,5.57
2018-02-01T19:39:23.880Z,5.70
2018-02-01T19:41:51.787Z,5.90
2018-02-01T19:44:19.599Z,5.80
2018-02-01T19:46:47.499Z,5.50
2018-02-01T19:49:15.314Z,6.00
2018-02-01T19:51:43.122Z,5.40
2018-02-01T19:54:10.928Z,5.47
2018-02-01T19:56:38.825Z,5.87
2018-02-01T19:59:06.648Z,6.40
2018-02-01T20:01:34.598Z,5.70
2018-02-01T20:04:02.459Z,4.97
2018-02-01T20:06:30.350Z,5.07
2018-02-01T20:08:58.174Z,5.37
2018-02-01T20:11:26.038Z,5.33
2018-02-01T20:13:53.800Z,5.60
2018-02-01T20:16:21.698Z,5.57
2018-02-01T20:18:49.497Z,5.57
2018-02-01T20:21:17.368Z,5.90
2018-02-01T20:23:45.176Z,5.90
2018-02-01T20:26:13.077Z,6.90
2018-02-01T20:28:40.896Z,6.23
2018-02-01T20:31:08.757Z,7.00
2018-02-01T20:33:36.560Z,6.50
2018-02-01T20:36:04.396Z,6.77
2018-02-01T20:38:32.195Z,6.07
2018-02-01T20:41:00.060Z,6.13
2018-02-01T20:43:27.872Z,6.20
2018-02-01T20:45:55.756Z,5.80
2018-02-01T20:48:23.553Z,6.60
2018-02-01T20:50:51.379Z,5.87
2018-02-01T20:53:19.198Z,6.30
2018-02-01T20:55:47.047Z,6.40
2018-02-01T20:58:14.882Z,6.67
2018-02-01T21:00:42.752Z,6.30
2018-02-01T21:03:10.600Z,6.30
2018-02-01T21:05:38.436Z,7.13
2018-02-01T21:08:06.196Z,6.60
2018-02-01T21:10:34.064Z,6.53
2018-02-01T21:13:01.851Z,6.00
2018-02-01T21:15:29.681Z,6.70
2018-02-01T21:17:57.509Z,6.13
2018-02-01T21:20:25.331Z,7.23
2018-02-01T21:22:53.179Z,6.43
2018-02-01T21:25:20.966Z,7.07
2018-02-01T21:27:48.843Z,7.37
2018-02-01T21:30:16.688Z,7.43
2018-02-01T21:32:44.559Z,6.50
2018-02-01T21:35:12.380Z,7.00
2018-02-01T21:37:40.311Z,6.50
2018-02-01T21:40:08.142Z,7.40
2018-02-01T21:42:36.046Z,7.20
2018-02-01T21:45:03.917Z,7.13
2018-02-01T21:47:32.761Z,7.73
2018-02-01T21:50:00.583Z,7.90
2018-02-01T21:52:28.464Z,6.80
2018-02-01T21:54:56.247Z,7.13
2018-02-01T21:57:24.119Z,7.60
2018-02-01T21:59:51.936Z,7.80
2018-02-01T22:02:19.819Z,7.20
2018-02-01T22:04:47.584Z,7.67
2018-02-01T22:07:15.428Z,7.83
2018-02-01T22:09:43.258Z,7.63
2018-02-01T22:12:11.089Z,7.47
2018-02-01T22:14:38.921Z,7.30
2018-02-01T22:17:06.790Z,8.00
2018-02-01T22:19:34.601Z,8.77
2018-02-01T22:22:02.495Z,7.70
2018-02-01T22:24:30.358Z,8.67
2018-02-01T22:26:58.296Z,8.40
2018-02-01T22:29:26.089Z,9.90
2018-02-01T22:31:53.950Z,8.50
2018-02-01T22:34:21.754Z,8.70
2018-02-01T22:36:49.665Z,8.90
2018-02-01T22:39:17.496Z,8.57
2018-02-01T22:41:45.385Z,8.10
2018-02-01T22:44:13.135Z,7.70
2018-02-01T22:46:41.001Z,8.37
2018-02-01T22:49:08.829Z,8.50
2018-02-01T22:51:36.652Z,8.50
2018-02-01T22:54:04.469Z,7.70
2018-02-01T22:56:32.286Z,8.20
2018-02-01T22:59:00.134Z,8.47
2018-02-01T23:01:27.952Z,8.70
2018-02-01T23:03:55.797Z,7.83
2018-02-01T23:06:23.595Z,7.40
2018-02-01T23:08:51.476Z,8.67
2018-02-01T23:11:19.261Z,8.70
2018-02-01T23:13:47.123Z,8.50
2018-02-01T23:16:14.904Z,8.27
2018-02-01T23:18:42.739Z,8.37
2018-02-01T23:21:10.545Z,7.90
2018-02-01T23:23:38.360Z,8.17
2018-02-01T23:26:06.183Z,8.00
2018-02-01T23:28:33.989Z,8.50
2018-02-01T23:31:01.845Z,7.90
2018-02-01T23:33:29.692Z,8.60
2018-02-01T23:35:57.534Z,8.77
2018-02-01T23:38:25.385Z,7.53
2018-02-01T23:40:53.159Z,7.20
2018-02-01T23:43:20.996Z,8.33
2018-02-01T23:45:48.798Z,7.60
2018-02-01T23:48:16.635Z,6.90
2018-02-01T23:50:44.425Z,7.47
2018-02-01T23:53:12.263Z,7.60
2018-02-01T23:55:40.064Z,7.50
2018-02-01T23:58:07.920Z,7.67
